Time;durP1;ratioP1;P1;durP2;ratioP2;P2;SDS_P1;SDS_P2;PMS_P1;PMS_P2;Temp;Humidity;BMP_temperature;BMP_pressure;BME280_temperature;BME280_humidity;BME280_pressure;Samples;Min_cycle;Max_cycle;Signal;HPM_P1;HPM_P2
2023/01/02 00:01:47;;;;;;;13.77;8.50;;;;;;;3.02;100.00;99812.81;5003130;28;20029;-82
2023/01/02 00:04:15;;;;;;;11.88;8.40;;;;;;;2.99;100.00;99813.03;5001459;28;20058;-82
2023/01/02 00:06:43;;;;;;;12.52;8.38;;;;;;;3.01;100.00;99823.38;4979369;28;20033;-82
2023/01/02 00:09:11;;;;;;;13.32;7.65;;;;;;;2.95;100.00;99819.41;5014324;28;20038;-82
2023/01/02 00:11:39;;;;;;;10.35;7.45;;;;;;;2.95;100.00;99816.81;5002413;28;20053;-82
2023/01/02 00:14:08;;;;;;;13.85;7.25;;;;;;;2.93;100.00;99826.53;4999939;28;20507;-83
2023/01/02 00:16:36;;;;;;;13.60;7.35;;;;;;;2.92;100.00;99830.09;5001230;28;20148;-81
2023/01/02 00:19:04;;;;;;;9.85;6.68;;;;;;;2.96;100.00;99826.31;4986395;28;20441;-81
2023/01/02 00:21:32;;;;;;;10.50;6.60;;;;;;;2.94;100.00;99833.41;4993778;28;20033;-81
2023/01/02 00:24:03;;;;;;;9.48;6.50;;;;;;;2.98;100.00;99829.63;5006733;28;20137;-81
2023/01/02 00:26:33;;;;;;;9.13;6.47;;;;;;;2.98;100.00;99833.09;4993227;28;20026;-80
2023/01/02 00:29:02;;;;;;;9.32;6.60;;;;;;;2.99;100.00;99839.16;4991081;28;20069;-81
2023/01/02 00:31:30;;;;;;;8.77;6.15;;;;;;;2.95;100.00;99835.09;4990667;28;20066;-81
2023/01/02 00:33:59;;;;;;;11.40;6.10;;;;;;;2.98;100.00;99837.47;4989205;28;20125;-81
2023/01/02 00:36:26;;;;;;;8.27;5.65;;;;;;;3.02;100.00;99845.94;5009939;28;20455;-81
2023/01/02 00:38:57;;;;;;;11.18;5.65;;;;;;;3.04;100.00;99844.84;5009706;28;20096;-82
2023/01/02 00:41:25;;;;;;;7.63;4.97;;;;;;;3.06;100.00;99839.53;5008375;28;20077;-81
2023/01/02 00:43:55;;;;;;;7.07;4.53;;;;;;;3.11;100.00;99850.47;5004760;28;20034;-81
2023/01/02 00:46:25;;;;;;;5.72;4.47;;;;;;;3.11;100.00;99842.66;4994296;28;20184;-81
2023/01/02 00:48:55;;;;;;;5.88;4.15;;;;;;;3.12;100.00;99849.56;4979471;28;20188;-81
2023/01/02 00:51:24;;;;;;;5.43;3.90;;;;;;;3.14;100.00;99845.03;4970677;28;20038;-81
2023/01/02 00:53:54;;;;;;;9.43;5.07;;;;;;;3.20;100.00;99851.63;5007464;28;20041;-81
2023/01/02 00:56:22;;;;;;;5.93;4.05;;;;;;;3.23;100.00;99856.63;5016883;28;20128;-82
2023/01/02 00:58:51;;;;;;;10.88;4.30;;;;;;;3.29;100.00;99857.94;5011221;28;20069;-81
2023/01/02 01:01:18;;;;;;;8.00;4.65;;;;;;;3.31;100.00;99859.47;5009013;28;20117;-81
2023/01/02 01:03:46;;;;;;;6.32;2.90;;;;;;;3.37;100.00;99860.81;5006744;28;20045;-81
2023/01/02 01:06:13;;;;;;;5.63;2.00;;;;;;;3.39;100.00;99869.41;5005706;28;20041;-81
2023/01/02 01:08:43;;;;;;;5.13;2.55;;;;;;;3.42;100.00;99861.34;5008921;28;20183;-80
2023/01/02 01:11:14;;;;;;;4.57;2.35;;;;;;;3.40;100.00;99870.22;5004006;28;20496;-81
2023/01/02 01:13:45;;;;;;;3.30;2.13;;;;;;;3.37;100.00;99866.06;5023825;28;20537;-81
2023/01/02 01:16:18;;;;;;;3.38;2.22;;;;;;;3.41;100.00;99864.06;4999052;28;20030;-81
2023/01/02 01:18:49;;;;;;;5.65;2.00;;;;;;;3.42;100.00;99870.94;5004848;28;20046;-81
2023/01/02 01:21:19;;;;;;;3.33;1.80;;;;;;;3.42;100.00;99881.38;4984977;28;20043;-81
2023/01/02 01:23:55;;;;;;;2.72;1.73;;;;;;;3.45;100.00;99878.56;4926560;28;20506;-80
2023/01/02 01:26:24;;;;;;;3.03;2.22;;;;;;;3.46;100.00;99890.66;4991538;28;20057;-81
2023/01/02 01:28:56;;;;;;;2.92;1.70;;;;;;;3.48;100.00;99886.16;5009988;28;20077;-82
2023/01/02 01:31:25;;;;;;;3.40;1.55;;;;;;;3.49;100.00;99884.41;4997219;28;20442;-81
2023/01/02 01:33:54;;;;;;;5.82;2.08;;;;;;;3.43;100.00;99890.88;4991383;28;20033;-81
2023/01/02 01:36:23;;;;;;;2.58;1.90;;;;;;;3.40;100.00;99896.34;5001379;28;20422;-81
2023/01/02 01:38:52;;;;;;;3.53;1.60;;;;;;;3.34;100.00;99892.41;4988786;28;20037;-81
2023/01/02 01:41:24;;;;;;;5.28;1.63;;;;;;;3.31;100.00;99896.06;4990633;28;20048;-81
2023/01/02 01:43:57;;;;;;;2.67;1.60;;;;;;;3.28;100.00;99898.88;4989467;28;20061;-81
2023/01/02 01:46:41;;;;;;;3.95;1.88;;;;;;;3.27;100.00;99899.84;5019633;28;20092;-81
2023/01/02 01:49:24;;;;;;;1.65;1.45;;;;;;;3.28;100.00;99909.34;5015536;28;20049;-81
2023/01/02 01:52:02;;;;;;;3.75;1.40;;;;;;;3.27;100.00;99909.44;5003741;28;20108;-81
2023/01/02 01:54:39;;;;;;;2.05;1.45;;;;;;;3.29;100.00;99913.63;5020353;28;20084;-81
2023/01/02 01:57:16;;;;;;;2.33;1.52;;;;;;;3.29;100.00;99918.00;4980598;28;20036;-81
2023/01/02 01:59:47;;;;;;;2.22;1.45;;;;;;;3.31;100.00;99926.59;4971017;28;20372;-81
2023/01/02 02:02:15;;;;;;;1.50;1.02;;;;;;;3.28;100.00;99929.41;5002607;28;20104;-81
2023/01/02 02:04:44;;;;;;;3.80;1.00;;;;;;;3.28;100.00;99942.47;4973174;28;20042;-81
2023/01/02 02:07:13;;;;;;;3.85;1.40;;;;;;;3.26;100.00;99939.13;4986673;28;20117;-82
2023/01/02 02:09:51;;;;;;;6.22;1.30;;;;;;;3.30;100.00;99951.84;4988214;28;20039;-81
2023/01/02 02:12:19;;;;;;;2.50;1.17;;;;;;;3.28;100.00;99960.75;4983096;28;20046;-81
2023/01/02 02:14:49;;;;;;;1.70;1.00;;;;;;;3.32;100.00;99957.81;4991269;28;20102;-81
2023/01/02 02:18:01;;;;;;;2.05;1.05;;;;;;;3.33;100.00;99964.69;4930974;28;20092;-81
2023/01/02 02:20:43;;;;;;;2.88;1.27;;;;;;;3.34;100.00;99963.75;5022939;28;20045;-81
2023/01/02 02:23:45;;;;;;;3.53;1.08;;;;;;;3.38;100.00;99968.78;5016580;28;20057;-81
2023/01/02 02:26:39;;;;;;;2.80;0.95;;;;;;;3.38;100.00;99971.41;5009264;28;20034;-84
2023/01/02 02:29:48;;;;;;;1.95;1.10;;;;;;;3.41;100.00;99979.81;4983632;28;20137;-83
2023/01/02 02:32:38;;;;;;;1.98;1.17;;;;;;;3.45;100.00;99983.06;4986997;28;20029;-84
2023/01/02 02:35:49;;;;;;;2.97;0.90;;;;;;;3.46;100.00;99993.41;4990153;28;20402;-84
2023/01/02 02:38:31;;;;;;;1.95;0.95;;;;;;;3.47;100.00;99989.84;4997994;28;20034;-84
2023/01/02 02:41:38;;;;;;;2.45;1.05;;;;;;;3.52;100.00;99992.13;5001941;28;20147;-83
2023/01/02 02:44:53;;;;;;;3.90;1.10;;;;;;;3.56;100.00;99995.34;5007398;28;20611;-84
2023/01/02 02:47:29;;;;;;;1.95;0.95;;;;;;;3.60;100.00;100007.25;4985762;28;20402;-84
2023/01/02 02:50:10;;;;;;;5.00;2.05;;;;;;;3.58;100.00;100012.59;5004800;28;20117;-81
2023/01/02 02:52:46;;;;;;;1.85;1.02;;;;;;;3.57;100.00;100024.00;5024396;28;20036;-81
2023/01/02 02:55:19;;;;;;;;;;;;;;;3.47;100.00;100017.78;4999632;28;20092;-82
2023/01/02 02:57:50;;;;;;;1.83;0.90;;;;;;;3.46;100.00;100021.31;5009604;28;20004;-81
2023/01/02 03:00:23;;;;;;;3.20;0.88;;;;;;;3.46;100.00;100016.94;4973533;28;20045;-81
2023/01/02 03:02:53;;;;;;;6.10;0.98;;;;;;;3.43;100.00;100022.38;4971497;28;20049;-81
2023/01/02 03:06:01;;;;;;;1.20;0.73;;;;;;;3.42;100.00;100019.88;4992892;28;20121;-80
2023/01/02 03:08:45;;;;;;;4.07;1.00;;;;;;;3.37;100.00;100017.56;4972690;28;20101;-81
2023/01/02 03:11:15;;;;;;;2.22;0.93;;;;;;;3.31;100.00;100028.47;4995570;28;20041;-81
2023/01/02 03:14:03;;;;;;;1.08;0.80;;;;;;;3.28;100.00;100028.69;4990594;28;20366;-82
2023/01/02 03:16:40;;;;;;;2.63;0.93;;;;;;;3.22;100.00;100029.91;5010908;28;20026;-81
2023/01/02 03:19:17;;;;;;;0.90;0.68;;;;;;;3.14;100.00;100034.88;4994287;28;20123;-81
2023/01/02 03:22:17;;;;;;;1.85;0.85;;;;;;;3.07;100.00;100040.47;4991873;28;20475;-81
2023/01/02 03:24:49;;;;;;;2.13;1.17;;;;;;;2.98;100.00;100044.56;4994280;28;20040;-81
2023/01/02 03:27:26;;;;;;;3.17;0.88;;;;;;;2.96;100.00;100046.44;5010786;28;20033;-82
2023/01/02 03:30:01;;;;;;;1.65;1.08;;;;;;;2.94;100.00;100048.34;5010085;28;20479;-81
2023/01/02 03:32:36;;;;;;;3.55;0.85;;;;;;;2.92;100.00;100051.97;5008208;28;20070;-81
2023/01/02 03:35:14;;;;;;;3.42;0.90;;;;;;;2.91;100.00;100053.78;5010518;28;20037;-81
2023/01/02 03:37:51;;;;;;;1.40;0.82;;;;;;;2.91;100.00;100060.75;4976256;28;20734;-81
2023/01/02 03:40:43;;;;;;;3.75;1.02;;;;;;;2.90;100.00;100053.88;4992783;28;20042;-81
2023/01/02 03:43:18;;;;;;;1.52;0.73;;;;;;;2.91;100.00;100058.16;4994061;28;20048;-81
2023/01/02 03:46:10;;;;;;;1.83;0.90;;;;;;;2.89;100.00;100060.88;4994081;28;20033;-82
2023/01/02 03:49:07;;;;;;;2.95;1.10;;;;;;;2.85;100.00;100064.63;5006706;28;20057;-81
2023/01/02 03:51:37;;;;;;;3.72;0.90;;;;;;;2.79;100.00;100068.47;4991901;28;20062;-81
2023/01/02 03:54:08;;;;;;;3.25;1.10;;;;;;;2.78;100.00;100069.44;5028215;28;20505;-81
2023/01/02 03:56:59;;;;;;;4.70;1.02;;;;;;;2.72;100.00;100070.66;4995682;28;20088;-81
2023/01/02 03:59:46;;;;;;;4.30;0.90;;;;;;;2.68;100.00;100078.78;5004933;28;20125;-81
2023/01/02 04:02:41;;;;;;;2.28;0.60;;;;;;;2.56;100.00;100078.69;5008679;28;20041;-81
2023/01/02 04:05:20;;;;;;;1.10;0.85;;;;;;;2.51;100.00;100085.13;5000952;28;20430;-81
2023/01/02 04:07:56;;;;;;;4.13;1.13;;;;;;;2.46;100.00;100088.03;4990739;28;20037;-81
2023/01/02 04:10:28;;;;;;;2.00;0.80;;;;;;;2.38;100.00;100088.53;4995525;28;20041;-82
2023/01/02 04:13:03;;;;;;;1.08;0.80;;;;;;;2.27;100.00;100091.84;5003555;28;20034;-81
2023/01/02 04:15:35;;;;;;;5.20;0.90;;;;;;;2.12;100.00;100095.47;4984453;28;20030;-81
2023/01/02 04:18:11;;;;;;;2.15;0.80;;;;;;;2.07;100.00;100109.59;4999886;28;20462;-81
2023/01/02 04:20:45;;;;;;;1.35;0.90;;;;;;;1.92;100.00;100107.97;5010383;28;20079;-80
2023/01/02 04:23:24;;;;;;;1.77;1.02;;;;;;;1.79;100.00;100115.72;5008662;28;20065;-81
2023/01/02 04:26:01;;;;;;;4.40;1.02;;;;;;;1.72;100.00;100115.28;4989920;28;20037;-81
2023/01/02 04:28:34;;;;;;;2.03;1.30;;;;;;;1.68;100.00;100119.84;4994218;28;20042;-81
2023/01/02 04:31:09;;;;;;;1.92;1.00;;;;;;;1.63;100.00;100118.44;5025517;28;20040;-81
2023/01/02 04:33:50;;;;;;;3.67;1.10;;;;;;;1.62;100.00;100117.63;5011737;28;20363;-81
2023/01/02 04:36:21;;;;;;;2.78;0.80;;;;;;;1.58;100.00;100123.94;4997499;28;20030;-81
2023/01/02 04:38:51;;;;;;;2.22;1.08;;;;;;;1.50;100.00;100126.19;5005793;28;20113;-81
2023/01/02 04:41:28;;;;;;;4.80;1.27;;;;;;;1.40;100.00;100131.09;4995273;28;20057;-81
2023/01/02 04:43:58;;;;;;;4.30;1.10;;;;;;;1.35;100.00;100124.38;4990521;28;20035;-80
2023/01/02 04:46:29;;;;;;;2.10;1.45;;;;;;;1.35;100.00;100136.59;5004027;28;20045;-81
2023/01/02 04:48:59;;;;;;;1.65;1.33;;;;;;;1.31;100.00;100132.47;4997111;28;20030;-81
2023/01/02 04:51:29;;;;;;;5.32;1.50;;;;;;;1.30;100.00;100130.81;5010425;28;20040;-82
2023/01/02 04:53:57;;;;;;;2.85;1.30;;;;;;;1.30;100.00;100130.81;5008658;28;20038;-82
2023/01/02 04:56:25;;;;;;;3.15;1.42;;;;;;;1.31;100.00;100135.94;5007954;28;20043;-82
2023/01/02 04:58:53;;;;;;;2.97;1.85;;;;;;;1.34;100.00;100143.56;5008429;28;20037;-82
2023/01/02 05:01:21;;;;;;;1.40;1.30;;;;;;;1.33;100.00;100147.09;5010292;28;20044;-81
2023/01/02 05:03:51;;;;;;;3.08;1.33;;;;;;;1.36;100.00;100135.66;5007113;28;20042;-81
2023/01/02 05:06:20;;;;;;;3.63;1.73;;;;;;;1.39;100.00;100145.88;5008301;28;20125;-82
2023/01/02 05:08:48;;;;;;;2.40;1.77;;;;;;;1.42;100.00;100150.91;4992314;28;20121;-82
2023/01/02 05:11:19;;;;;;;2.70;1.75;;;;;;;1.42;100.00;100153.50;5008819;28;20069;-81
2023/01/02 05:13:49;;;;;;;2.75;1.48;;;;;;;1.43;100.00;100147.41;4985729;28;20117;-81
2023/01/02 05:16:19;;;;;;;2.38;1.70;;;;;;;1.45;100.00;100155.13;5008237;28;20151;-81
2023/01/02 05:18:49;;;;;;;3.00;1.67;;;;;;;1.46;100.00;100155.03;5003331;28;20034;-81
2023/01/02 05:24:07;;;;;;;2.60;1.90;;;;;;;1.45;100.00;100162.94;4990231;28;20104;-82
2023/01/02 05:26:37;;;;;;;2.53;1.50;;;;;;;1.45;100.00;100168.94;4992523;28;20026;-81
2023/01/02 05:29:07;;;;;;;3.80;1.35;;;;;;;1.47;100.00;100164.50;5006556;28;20065;-81
2023/01/02 05:31:35;;;;;;;2.25;1.60;;;;;;;1.50;100.00;100163.47;5000603;28;20037;-82
2023/01/02 05:34:04;;;;;;;2.90;1.60;;;;;;;1.48;100.00;100166.16;5006072;28;20040;-82
2023/01/02 05:36:31;;;;;;;2.28;1.23;;;;;;;1.49;100.00;100169.63;5003111;28;20484;-82
2023/01/02 05:39:00;;;;;;;3.38;1.15;;;;;;;1.49;100.00;100180.03;4993218;28;20048;-82
2023/01/02 05:41:28;;;;;;;3.42;1.23;;;;;;;1.49;100.00;100177.44;5008845;28;20038;-81
2023/01/02 05:43:55;;;;;;;1.88;1.30;;;;;;;1.48;100.00;100186.19;5020659;28;20092;-81
2023/01/02 05:46:25;;;;;;;1.58;1.30;;;;;;;1.47;100.00;100187.09;5008116;28;20033;-81
2023/01/02 05:48:54;;;;;;;2.10;1.25;;;;;;;1.48;100.00;100191.41;5002258;28;20029;-81
2023/01/02 05:51:22;;;;;;;2.13;1.13;;;;;;;1.48;100.00;100196.59;5005304;28;20038;-81
2023/01/02 05:53:54;;;;;;;2.60;1.10;;;;;;;1.49;100.00;100198.28;5003680;28;20509;-81
2023/01/02 05:56:21;;;;;;;1.45;1.13;;;;;;;1.45;100.00;100207.22;5011722;28;20557;-81
2023/01/02 05:58:49;;;;;;;2.90;1.13;;;;;;;1.47;100.00;100206.19;4991097;28;20394;-81
2023/01/02 06:01:23;;;;;;;3.20;1.38;;;;;;;1.48;100.00;100212.22;4989915;28;20096;-81
2023/01/02 06:03:55;;;;;;;2.72;1.33;;;;;;;1.46;100.00;100214.94;4987885;28;20057;-81
2023/01/02 06:06:31;;;;;;;1.95;1.40;;;;;;;1.47;100.00;100220.97;4988021;28;20038;-81
2023/01/02 06:09:01;;;;;;;3.42;1.65;;;;;;;1.44;100.00;100219.38;4990572;28;20072;-81
2023/01/02 06:11:32;;;;;;;1.88;1.30;;;;;;;1.39;100.00;100221.41;4991578;28;20050;-81
2023/01/02 06:14:02;;;;;;;4.07;1.35;;;;;;;1.40;100.00;100232.69;5002064;28;20061;-80
2023/01/02 06:16:32;;;;;;;4.82;1.17;;;;;;;1.41;100.00;100232.59;5007919;28;20065;-80
2023/01/02 06:19:00;;;;;;;3.35;1.00;;;;;;;1.44;100.00;100235.00;4990625;28;20037;-81
2023/01/02 06:21:29;;;;;;;3.53;1.30;;;;;;;1.41;100.00;100235.19;5008435;28;20045;-81
2023/01/02 06:23:57;;;;;;;2.08;1.17;;;;;;;1.44;100.00;100249.78;5007042;28;20032;-80
2023/01/02 06:26:27;;;;;;;3.40;1.20;;;;;;;1.43;100.00;100248.13;4993635;28;20030;-81
2023/01/02 06:28:56;;;;;;;1.45;1.33;;;;;;;1.44;100.00;100242.81;5015225;28;20076;-81
2023/01/02 06:31:28;;;;;;;2.97;1.42;;;;;;;1.45;100.00;100249.69;5012773;28;20037;-81
2023/01/02 06:34:01;;;;;;;1.25;1.13;;;;;;;1.45;100.00;100257.50;4994888;28;20105;-81
2023/01/02 06:36:33;;;;;;;1.70;1.13;;;;;;;1.42;100.00;100267.28;5006410;28;20053;-80
2023/01/02 06:39:04;;;;;;;2.97;1.40;;;;;;;1.36;100.00;100260.66;4993919;28;20125;-81
2023/01/02 06:41:34;;;;;;;1.90;1.17;;;;;;;1.33;100.00;100260.84;4989418;28;20030;-81
2023/01/02 06:44:03;;;;;;;2.63;1.33;;;;;;;1.32;100.00;100269.59;5013386;28;20136;-81
2023/01/02 06:46:30;;;;;;;5.82;1.10;;;;;;;1.26;100.00;100275.97;5012973;28;20494;-81
2023/01/02 06:49:00;;;;;;;2.35;1.33;;;;;;;1.20;100.00;100279.78;4996840;28;20431;-81
2023/01/02 06:51:30;;;;;;;1.58;1.35;;;;;;;1.09;100.00;100279.53;4997543;28;20490;-81
2023/01/02 06:53:59;;;;;;;2.40;1.13;;;;;;;1.01;100.00;100290.38;4996964;28;20490;-82
2023/01/02 06:56:27;;;;;;;4.00;1.60;;;;;;;0.94;100.00;100294.28;4990388;28;20065;-81
2023/01/02 06:58:55;;;;;;;3.75;2.30;;;;;;;0.95;100.00;100293.34;5014894;28;20645;-82
2023/01/02 07:01:23;;;;;;;8.40;4.82;;;;;;;0.93;100.00;100296.03;5013119;28;20499;-82
2023/01/02 07:03:54;;;;;;;5.43;2.90;;;;;;;0.94;100.00;100300.28;5009319;28;20035;-82
2023/01/02 07:06:26;;;;;;;7.03;2.47;;;;;;;0.96;100.00;100302.81;5009042;28;20029;-82
2023/01/02 07:08:56;;;;;;;3.20;1.58;;;;;;;0.98;100.00;100314.84;4994856;28;20053;-82
2023/01/02 07:11:26;;;;;;;3.13;1.35;;;;;;;0.97;100.00;100313.13;4980484;28;20112;-81
2023/01/02 07:13:54;;;;;;;17.20;12.65;;;;;;;0.99;100.00;100315.66;5005817;28;20041;-82
2023/01/02 07:16:23;;;;;;;6.05;4.20;;;;;;;0.96;100.00;100311.47;4987057;28;20042;-82
2023/01/02 07:18:53;;;;;;;3.75;1.88;;;;;;;0.92;100.00;100319.53;5008271;28;20111;-83
2023/01/02 07:21:21;;;;;;;2.03;1.40;;;;;;;0.93;100.00;100326.41;5006890;28;20045;-83
2023/01/02 07:23:49;;;;;;;12.50;6.72;;;;;;;0.89;100.00;100330.13;5023286;28;20033;-83
2023/01/02 07:26:17;;;;;;;13.68;7.45;;;;;;;0.84;100.00;100323.41;5011765;28;20084;-83
2023/01/02 07:28:46;;;;;;;12.60;6.68;;;;;;;0.80;100.00;100327.09;5014035;28;20042;-83
2023/01/02 07:31:16;;;;;;;65.78;41.00;;;;;;;0.78;100.00;100328.91;5004934;28;20030;-83
2023/01/02 07:33:44;;;;;;;46.40;29.38;;;;;;;0.75;100.00;100329.09;5006089;28;20069;-82
2023/01/02 07:36:15;;;;;;;29.67;19.58;;;;;;;0.76;100.00;100335.13;4994419;28;20046;-82
2023/01/02 07:38:44;;;;;;;9.45;6.90;;;;;;;0.76;100.00;100333.38;5005616;28;20077;-82
2023/01/02 07:41:17;;;;;;;11.88;8.13;;;;;;;0.74;100.00;100338.69;4995616;28;20060;-82
2023/01/02 07:43:46;;;;;;;18.48;12.63;;;;;;;0.69;100.00;100342.44;4993546;28;20041;-82
2023/01/02 07:46:18;;;;;;;10.00;7.78;;;;;;;0.67;100.00;100344.28;4994021;28;20026;-83
2023/01/02 07:48:49;;;;;;;8.75;6.28;;;;;;;0.69;100.00;100350.22;5023176;28;20025;-82
2023/01/02 07:51:19;;;;;;;4.13;3.08;;;;;;;0.68;100.00;100354.63;5008597;28;20037;-82
2023/01/02 07:53:49;;;;;;;10.43;8.20;;;;;;;0.67;100.00;100360.72;5009425;28;20036;-82
2023/01/02 07:56:18;;;;;;;4.40;4.00;;;;;;;0.68;100.00;100362.44;4991657;28;20068;-82
2023/01/02 07:58:47;;;;;;;6.07;4.57;;;;;;;0.65;100.00;100361.75;5003959;28;20121;-82
2023/01/02 08:01:15;;;;;;;6.07;4.38;;;;;;;0.63;100.00;100368.78;5009830;28;20030;-82
2023/01/02 08:03:45;;;;;;;10.18;6.95;;;;;;;0.59;100.00;100368.13;5007869;28;20035;-82
2023/01/02 08:06:16;;;;;;;17.83;12.23;;;;;;;0.55;100.00;100374.38;5010202;28;20030;-82
2023/01/02 08:08:47;;;;;;;8.77;5.68;;;;;;;0.49;100.00;100370.38;5008779;28;20033;-82
2023/01/02 08:11:19;;;;;;;67.13;35.85;;;;;;;0.47;100.00;100377.41;5009828;28;20046;-82
2023/01/02 08:13:50;;;;;;;122.47;68.38;;;;;;;0.44;100.00;100375.81;5008019;28;20136;-82
2023/01/02 08:16:20;;;;;;;125.65;72.78;;;;;;;0.45;100.00;100379.22;5008898;28;20049;-81
2023/01/02 08:18:51;;;;;;;26.73;16.15;;;;;;;0.44;100.00;100383.59;5024836;28;20092;-82
2023/01/02 08:21:21;;;;;;;58.65;37.83;;;;;;;0.49;100.00;100385.97;4993724;28;20054;-82
2023/01/02 08:23:51;;;;;;;24.25;17.40;;;;;;;0.46;100.00;100394.75;5023283;28;20034;-82
2023/01/02 08:26:21;;;;;;;18.60;14.35;;;;;;;0.47;100.00;100395.59;5009920;28;20112;-82
2023/01/02 08:28:49;;;;;;;10.02;7.63;;;;;;;0.45;100.00;100407.84;5009251;28;20483;-82
2023/01/02 08:31:20;;;;;;;4.63;3.28;;;;;;;0.44;100.00;100408.75;5006137;28;20034;-82
2023/01/02 08:33:49;;;;;;;5.60;4.03;;;;;;;0.38;100.00;100415.13;4992869;28;20041;-83
2023/01/02 08:36:20;;;;;;;23.35;16.50;;;;;;;0.36;100.00;100419.56;5006520;28;20041;-82
2023/01/02 08:38:49;;;;;;;17.20;13.10;;;;;;;0.34;100.00;100424.84;5009296;28;20030;-82
2023/01/02 08:41:32;;;;;;;5.65;4.28;;;;;;;0.32;100.00;100429.28;5009746;28;20573;-82
2023/01/02 08:44:02;;;;;;;3.97;2.65;;;;;;;0.31;100.00;100424.16;4993065;28;20033;-82
2023/01/02 08:46:34;;;;;;;4.57;3.35;;;;;;;0.21;100.00;100429.81;5007079;28;20037;-83
2023/01/02 08:49:04;;;;;;;5.72;2.65;;;;;;;0.06;100.00;100434.03;4989479;28;20045;-82
2023/01/02 08:51:34;;;;;;;4.40;2.78;;;;;;;-0.02;100.00;100434.41;5009379;28;20060;-82
2023/01/02 08:54:04;;;;;;;4.53;2.83;;;;;;;0.00;100.00;100436.94;5006686;28;20053;-82
2023/01/02 08:56:34;;;;;;;9.45;3.40;;;;;;;0.06;100.00;100441.00;5007965;28;20402;-82
2023/01/02 08:59:10;;;;;;;3.08;2.55;;;;;;;0.09;100.00;100443.44;5009156;28;20368;-82
2023/01/02 09:01:41;;;;;;;4.45;2.42;;;;;;;0.11;100.00;100447.63;5008293;28;20034;-82
2023/01/02 09:04:10;;;;;;;3.40;2.67;;;;;;;0.13;100.00;100452.75;4994295;28;20107;-83
2023/01/02 09:06:38;;;;;;;4.28;2.65;;;;;;;0.19;100.00;100457.66;5002191;28;20021;-82
2023/01/02 09:09:06;;;;;;;3.90;2.60;;;;;;;0.22;100.00;100456.66;4991823;28;20034;-82
2023/01/02 09:11:37;;;;;;;3.80;2.50;;;;;;;0.28;100.00;100450.31;4996191;28;20533;-82
2023/01/02 09:14:07;;;;;;;3.08;2.22;;;;;;;0.26;100.00;100460.78;4984907;28;20038;-82
2023/01/02 09:16:37;;;;;;;4.05;2.15;;;;;;;0.24;100.00;100460.00;5007628;28;20129;-82
2023/01/02 09:19:07;;;;;;;5.13;3.13;;;;;;;0.21;100.00;100461.03;5001817;28;20036;-82
2023/01/02 09:21:36;;;;;;;5.22;3.28;;;;;;;0.21;100.00;100461.03;4992937;28;20034;-82
2023/01/02 09:24:05;;;;;;;4.28;2.90;;;;;;;0.23;100.00;100461.78;4985672;28;20026;-82
2023/01/02 09:26:33;;;;;;;3.28;2.80;;;;;;;0.24;100.00;100471.25;5008933;28;20084;-82
2023/01/02 09:29:01;;;;;;;4.03;2.88;;;;;;;0.29;100.00;100478.84;4983888;28;20121;-81
2023/01/02 09:31:29;;;;;;;4.03;2.97;;;;;;;0.37;100.00;100478.44;5007556;28;20037;-82
2023/01/02 09:33:57;;;;;;;5.47;2.80;;;;;;;0.32;100.00;100481.28;4991537;28;21157;-82
2023/01/02 09:36:25;;;;;;;5.47;2.58;;;;;;;0.25;100.00;100482.50;4992288;28;20042;-81
2023/01/02 09:38:54;;;;;;;4.25;3.03;;;;;;;0.25;100.00;100485.13;5008637;28;20040;-82
2023/01/02 09:41:34;;;;;;;4.15;3.17;;;;;;;0.33;100.00;100490.78;4990690;28;20076;-81
2023/01/02 09:44:05;;;;;;;6.25;2.97;;;;;;;0.34;100.00;100497.66;5007786;28;20073;-81
2023/01/02 09:46:35;;;;;;;7.88;3.58;;;;;;;0.39;100.00;100494.81;4933528;28;20488;-81
2023/01/02 09:49:03;;;;;;;6.97;4.20;;;;;;;0.39;100.00;100493.97;4985206;28;20132;-82
2023/01/02 09:51:33;;;;;;;7.95;4.53;;;;;;;0.37;100.00;100499.25;4986764;28;20041;-81
2023/01/02 09:54:02;;;;;;;6.90;4.65;;;;;;;0.39;100.00;100499.16;5003795;28;20061;-81
2023/01/02 09:56:38;;;;;;;7.25;5.03;;;;;;;0.42;100.00;100509.41;5018480;28;20031;-82
2023/01/02 09:59:27;;;;;;;7.65;4.78;;;;;;;0.47;100.00;100516.09;5003186;28;20052;-81
2023/01/02 10:02:07;;;;;;;8.00;4.20;;;;;;;0.55;100.00;100512.25;5012522;28;20041;-81
2023/01/02 10:04:55;;;;;;;6.65;3.45;;;;;;;0.63;100.00;100522.25;5012696;28;20391;-81
2023/01/02 10:07:43;;;;;;;4.68;3.38;;;;;;;0.71;100.00;100520.97;4988310;28;20034;-81
2023/01/02 10:10:17;;;;;;;6.38;3.78;;;;;;;0.79;100.00;100523.16;5009756;28;20470;-82
2023/01/02 10:13:08;;;;;;;6.00;2.90;;;;;;;0.85;100.00;100522.00;5010248;28;20145;-82
2023/01/02 10:15:43;;;;;;;6.10;3.65;;;;;;;0.94;100.00;100528.50;4993338;28;20037;-82
2023/01/02 10:18:32;;;;;;;4.00;3.08;;;;;;;1.02;100.00;100531.53;5010118;28;20498;-82
2023/01/02 10:21:07;;;;;;;6.18;3.22;;;;;;;1.13;100.00;100535.34;5012146;28;20057;-82
2023/01/02 10:23:46;;;;;;;4.47;3.55;;;;;;;1.18;100.00;100528.97;4976015;28;20428;-82
2023/01/02 10:26:18;;;;;;;10.35;6.70;;;;;;;1.26;100.00;100533.75;5008138;28;20034;-82
2023/01/02 10:29:12;;;;;;;11.75;6.78;;;;;;;1.30;100.00;100543.13;5007768;28;20069;-82
2023/01/02 10:31:53;;;;;;;5.88;3.63;;;;;;;1.30;100.00;100544.88;4986714;28;20041;-82
2023/01/02 10:34:22;;;;;;;18.23;9.45;;;;;;;1.31;100.00;100542.19;5006945;28;20041;-81
2023/01/02 10:36:51;;;;;;;8.82;5.95;;;;;;;1.32;100.00;100537.81;5021899;28;20061;-82
2023/01/02 10:39:24;;;;;;;5.97;4.60;;;;;;;1.40;100.00;100542.63;5020286;28;20516;-82
2023/01/02 10:41:58;;;;;;;6.53;3.90;;;;;;;1.46;100.00;100545.75;4993624;28;20487;-81
2023/01/02 10:44:33;;;;;;;6.07;3.67;;;;;;;1.52;100.00;100554.13;4984877;28;20069;-81
2023/01/02 10:47:35;;;;;;;13.45;8.55;;;;;;;1.54;100.00;100547.94;5005821;28;20026;-82
2023/01/02 10:50:07;;;;;;;14.55;9.45;;;;;;;1.59;100.00;100548.50;4976105;28;20050;-81
2023/01/02 10:52:51;;;;;;;8.18;4.85;;;;;;;1.68;100.00;100560.19;5006015;28;20068;-82
2023/01/02 10:55:30;;;;;;;9.32;6.43;;;;;;;1.71;100.00;100560.03;5002307;28;20040;-81
2023/01/02 10:58:19;;;;;;;18.63;13.30;;;;;;;1.72;100.00;100558.28;5009094;28;20042;-82
2023/01/02 11:00:52;;;;;;;8.10;5.65;;;;;;;1.78;100.00;100562.31;4991206;28;20033;-82
2023/01/02 11:06:34;;;;;;;5.57;3.20;;;;;;;1.88;100.00;100567.84;5383693;23;20080;-92
2023/01/02 11:09:35;;;;;;;6.53;3.70;;;;;;;1.98;100.00;100582.03;4865433;29;20059;-91
2023/01/02 11:12:47;;;;;;;4.38;3.42;;;;;;;1.98;100.00;100567.25;4886536;29;20382;-92
2023/01/02 11:15:29;;;;;;;4.43;3.00;;;;;;;2.08;100.00;100577.16;4939338;23;20052;-82
2023/01/02 11:18:00;;;;;;;8.77;3.15;;;;;;;2.04;100.00;100581.69;4880811;29;20033;-83
2023/01/02 11:20:34;;;;;;;8.38;3.15;;;;;;;2.13;100.00;100580.38;4879834;29;20115;-82
2023/01/02 11:23:06;;;;;;;7.40;5.20;;;;;;;2.16;100.00;100574.97;4911081;29;20486;-82
2023/01/02 11:25:41;;;;;;;4.38;3.53;;;;;;;2.21;100.00;100577.31;4889965;29;20040;-83
2023/01/02 11:28:19;;;;;;;4.60;3.17;;;;;;;2.27;100.00;100586.56;4880683;29;20389;-83
2023/01/02 11:30:55;;;;;;;5.32;3.92;;;;;;;2.29;100.00;100585.56;4911909;29;20042;-82
2023/01/02 11:33:29;;;;;;;;;;;;;;;2.24;100.00;100582.38;4908696;29;20126;-82
2023/01/02 11:36:04;;;;;;;6.07;3.20;;;;;;;2.35;100.00;100587.81;4909922;29;19927;-83
2023/01/02 11:38:45;;;;;;;4.88;3.33;;;;;;;2.45;100.00;100589.91;4901634;29;20092;-83
2023/01/02 11:45:02;;;;;;;3.92;2.25;;;;;;;2.45;100.00;100588.13;4902930;29;20035;-83
2023/01/02 11:47:38;;;;;;;3.33;2.22;;;;;;;2.47;100.00;100588.03;4918223;29;20024;-83
2023/01/02 11:50:14;;;;;;;6.90;2.42;;;;;;;2.54;100.00;100584.16;4909805;29;20119;-83
2023/01/02 11:52:49;;;;;;;3.83;2.47;;;;;;;2.64;100.00;100576.63;4894730;29;20039;-82
2023/01/02 11:55:24;;;;;;;;;;;;;;;2.63;100.00;100582.75;4909673;29;20039;-82
2023/01/02 11:58:04;;;;;;;4.85;2.92;;;;;;;2.77;100.00;100581.94;4892962;29;20034;-82
2023/01/02 12:00:38;;;;;;;8.00;4.10;;;;;;;2.85;100.00;100579.75;4908684;29;20586;-82
2023/01/02 12:03:29;;;;;;;8.60;2.53;;;;;;;2.95;100.00;100590.47;4923658;29;20092;-82
2023/01/02 12:06:36;;;;;;;3.38;2.22;;;;;;;3.01;100.00;100583.22;4911140;29;20114;-82
2023/01/02 12:09:42;;;;;;;2.85;2.17;;;;;;;3.06;100.00;100582.00;4907951;29;20040;-82